sensor_id;sensor_type;location;lat;lon;timestamp;pressure;altitude;pressure_sealevel;temperature;humidity
52949;BME280;38812;50.942;3.644;2023-03-01T00:00:37;103108.47;;;-3.47;100.00
52949;BME280;38812;50.942;3.644;2023-03-01T00:03:03;103108.25;;;-3.50;100.00
52949;BME280;38812;50.942;3.644;2023-03-01T00:05:29;103107.31;;;-3.39;100.00
52949;BME280;38812;50.942;3.644;2023-03-01T00:07:54;103107.19;;;-3.29;100.00
52949;BME280;38812;50.942;3.644;2023-03-01T00:10:19;103111.78;;;-3.25;100.00
52949;BME280;38812;50.942;3.644;2023-03-01T00:12:45;103090.66;;;-3.44;100.00
52949;BME280;38812;50.942;3.644;2023-03-01T00:15:10;103095.47;;;-3.37;100.00
52949;BME280;38812;50.942;3.644;2023-03-01T00:17:36;103113.41;;;-3.14;100.00
52949;BME280;38812;50.942;3.644;2023-03-01T00:20:02;103108.50;;;-3.22;100.00
52949;BME280;38812;50.942;3.644;2023-03-01T00:22:27;103101.38;;;-3.38;100.00
52949;BME280;38812;50.942;3.644;2023-03-01T00:24:53;103088.03;;;-3.21;100.00
52949;BME280;38812;50.942;3.644;2023-03-01T00:27:19;103103.28;;;-2.87;100.00
52949;BME280;38812;50.942;3.644;2023-03-01T00:29:45;103104.63;;;-2.92;100.00
52949;BME280;38812;50.942;3.644;2023-03-01T00:32:10;103095.56;;;-2.87;100.00
52949;BME280;38812;50.942;3.644;2023-03-01T00:34:35;103100.53;;;-2.77;100.00
52949;BME280;38812;50.942;3.644;2023-03-01T00:37:01;103099.03;;;-2.87;100.00
52949;BME280;38812;50.942;3.644;2023-03-01T00:39:31;103087.19;;;-2.96;100.00
52949;BME280;38812;50.942;3.644;2023-03-01T00:41:57;103084.78;;;-3.06;100.00
52949;BME280;38812;50.942;3.644;2023-03-01T00:44:22;103095.41;;;-3.14;100.00
52949;BME280;38812;50.942;3.644;2023-03-01T00:46:48;103094.47;;;-3.02;100.00
52949;BME280;38812;50.942;3.644;2023-03-01T00:49:13;103081.34;;;-3.19;100.00
52949;BME280;38812;50.942;3.644;2023-03-01T00:51:39;103077.25;;;-3.28;100.00
52949;BME280;38812;50.942;3.644;2023-03-01T00:54:08;103071.09;;;-3.42;100.00
52949;BME280;38812;50.942;3.644;2023-03-01T00:56:34;103091.06;;;-3.15;100.00
52949;BME280;38812;50.942;3.644;2023-03-01T00:58:59;103076.47;;;-3.02;100.00
52949;BME280;38812;50.942;3.644;2023-03-01T01:01:27;103083.09;;;-3.06;100.00
52949;BME280;38812;50.942;3.644;2023-03-01T01:04:01;103074.78;;;-3.27;100.00
52949;BME280;38812;50.942;3.644;2023-03-01T01:06:33;103078.75;;;-3.19;100.00
52949;BME280;38812;50.942;3.644;2023-03-01T01:09:00;103066.91;;;-3.17;100.00
52949;BME280;38812;50.942;3.644;2023-03-01T01:11:28;103080.66;;;-3.16;100.00
52949;BME280;38812;50.942;3.644;2023-03-01T01:13:54;103076.13;;;-3.32;100.00
52949;BME280;38812;50.942;3.644;2023-03-01T01:16:21;103074.34;;;-3.45;100.00
52949;BME280;38812;50.942;3.644;2023-03-01T01:18:47;103070.16;;;-3.56;100.00
52949;BME280;38812;50.942;3.644;2023-03-01T01:21:15;103067.25;;;-3.49;100.00
52949;BME280;38812;50.942;3.644;2023-03-01T01:23:42;103064.66;;;-3.60;100.00
52949;BME280;38812;50.942;3.644;2023-03-01T01:26:10;103063.56;;;-3.64;100.00
52949;BME280;38812;50.942;3.644;2023-03-01T01:28:36;103066.47;;;-3.59;100.00
52949;BME280;38812;50.942;3.644;2023-03-01T01:31:03;103047.13;;;-3.66;100.00
52949;BME280;38812;50.942;3.644;2023-03-01T01:33:28;103057.09;;;-3.70;100.00
52949;BME280;38812;50.942;3.644;2023-03-01T01:35:54;103047.72;;;-3.82;100.00
52949;BME280;38812;50.942;3.644;2023-03-01T01:38:20;103056.75;;;-3.87;100.00
52949;BME280;38812;50.942;3.644;2023-03-01T01:40:47;103057.91;;;-3.95;100.00
52949;BME280;38812;50.942;3.644;2023-03-01T01:43:34;103054.09;;;-4.00;100.00
52949;BME280;38812;50.942;3.644;2023-03-01T01:46:30;103056.13;;;-3.96;100.00
52949;BME280;38812;50.942;3.644;2023-03-01T01:48:59;103053.09;;;-4.02;100.00
52949;BME280;38812;50.942;3.644;2023-03-01T01:51:30;103051.84;;;-4.07;100.00
52949;BME280;38812;50.942;3.644;2023-03-01T01:54:06;103055.19;;;-4.08;100.00
52949;BME280;38812;50.942;3.644;2023-03-01T01:56:34;103040.47;;;-4.10;100.00
52949;BME280;38812;50.942;3.644;2023-03-01T01:59:01;103044.06;;;-3.97;100.00
52949;BME280;38812;50.942;3.644;2023-03-01T02:01:27;103047.72;;;-3.82;100.00
52949;BME280;38812;50.942;3.644;2023-03-01T02:03:52;103043.38;;;-3.94;100.00
52949;BME280;38812;50.942;3.644;2023-03-01T02:08:45;103040.25;;;-4.02;100.00
52949;BME280;38812;50.942;3.644;2023-03-01T02:11:13;103039.91;;;-4.06;100.00
52949;BME280;38812;50.942;3.644;2023-03-01T02:13:40;103038.59;;;-4.01;100.00
52949;BME280;38812;50.942;3.644;2023-03-01T02:16:11;103026.41;;;-4.04;100.00
52949;BME280;38812;50.942;3.644;2023-03-01T02:18:39;103025.50;;;-4.04;100.00
52949;BME280;38812;50.942;3.644;2023-03-01T02:21:17;103024.38;;;-3.85;100.00
52949;BME280;38812;50.942;3.644;2023-03-01T02:23:47;103009.19;;;-3.82;100.00
52949;BME280;38812;50.942;3.644;2023-03-01T02:26:36;103015.69;;;-3.75;100.00
52949;BME280;38812;50.942;3.644;2023-03-01T02:29:05;103006.72;;;-3.68;100.00
52949;BME280;38812;50.942;3.644;2023-03-01T02:31:31;103002.16;;;-3.72;100.00
52949;BME280;38812;50.942;3.644;2023-03-01T02:34:12;103007.63;;;-3.80;100.00
52949;BME280;38812;50.942;3.644;2023-03-01T02:36:53;103003.06;;;-3.84;100.00
52949;BME280;38812;50.942;3.644;2023-03-01T02:39:25;102994.25;;;-3.99;100.00
52949;BME280;38812;50.942;3.644;2023-03-01T02:41:53;102985.56;;;-4.01;100.00
52949;BME280;38812;50.942;3.644;2023-03-01T02:44:20;102989.59;;;-4.16;100.00
52949;BME280;38812;50.942;3.644;2023-03-01T02:46:51;102990.38;;;-4.17;100.00
52949;BME280;38812;50.942;3.644;2023-03-01T02:49:30;102982.69;;;-4.17;100.00
52949;BME280;38812;50.942;3.644;2023-03-01T02:54:40;102973.94;;;-4.07;100.00
52949;BME280;38812;50.942;3.644;2023-03-01T02:57:08;102976.22;;;-4.12;100.00
52949;BME280;38812;50.942;3.644;2023-03-01T02:59:36;102976.19;;;-4.24;100.00
52949;BME280;38812;50.942;3.644;2023-03-01T03:02:24;102963.94;;;-4.16;100.00
52949;BME280;38812;50.942;3.644;2023-03-01T03:05:25;102963.44;;;-4.10;100.00
52949;BME280;38812;50.942;3.644;2023-03-01T03:07:51;102967.06;;;-4.20;100.00
52949;BME280;38812;50.942;3.644;2023-03-01T03:10:23;102973.06;;;-4.31;100.00
52949;BME280;38812;50.942;3.644;2023-03-01T03:12:50;102977.09;;;-4.35;100.00
52949;BME280;38812;50.942;3.644;2023-03-01T03:15:16;102972.53;;;-4.39;100.00
52949;BME280;38812;50.942;3.644;2023-03-01T03:17:42;102967.72;;;-4.46;100.00
52949;BME280;38812;50.942;3.644;2023-03-01T03:20:10;102965.84;;;-4.37;100.00
52949;BME280;38812;50.942;3.644;2023-03-01T03:22:41;102981.34;;;-4.35;100.00
52949;BME280;38812;50.942;3.644;2023-03-01T03:25:07;102973.75;;;-4.34;100.00
52949;BME280;38812;50.942;3.644;2023-03-01T03:27:40;102960.38;;;-4.41;100.00
52949;BME280;38812;50.942;3.644;2023-03-01T03:30:08;102953.53;;;-4.53;100.00
52949;BME280;38812;50.942;3.644;2023-03-01T03:32:47;102953.22;;;-4.57;100.00
52949;BME280;38812;50.942;3.644;2023-03-01T03:35:19;102940.72;;;-4.64;100.00
52949;BME280;38812;50.942;3.644;2023-03-01T03:37:45;102946.63;;;-4.54;100.00
52949;BME280;38812;50.942;3.644;2023-03-01T03:40:39;102951.56;;;-4.57;100.00
52949;BME280;38812;50.942;3.644;2023-03-01T03:43:08;102960.25;;;-4.43;100.00
52949;BME280;38812;50.942;3.644;2023-03-01T03:45:34;102958.03;;;-4.38;100.00
52949;BME280;38812;50.942;3.644;2023-03-01T03:48:01;102959.00;;;-4.25;100.00
52949;BME280;38812;50.942;3.644;2023-03-01T03:50:27;102948.19;;;-4.32;100.00
52949;BME280;38812;50.942;3.644;2023-03-01T03:52:52;102965.72;;;-4.38;100.00
52949;BME280;38812;50.942;3.644;2023-03-01T03:55:18;102960.13;;;-4.44;100.00
52949;BME280;38812;50.942;3.644;2023-03-01T03:57:46;102967.50;;;-4.37;100.00
52949;BME280;38812;50.942;3.644;2023-03-01T04:00:20;102971.28;;;-4.44;100.00
52949;BME280;38812;50.942;3.644;2023-03-01T04:02:47;102968.84;;;-4.42;100.00
52949;BME280;38812;50.942;3.644;2023-03-01T04:05:15;102985.25;;;-4.40;100.00
52949;BME280;38812;50.942;3.644;2023-03-01T04:07:41;102964.16;;;-4.48;100.00
52949;BME280;38812;50.942;3.644;2023-03-01T04:10:14;102976.41;;;-4.44;100.00
52949;BME280;38812;50.942;3.644;2023-03-01T04:12:39;102966.59;;;-4.50;100.00
52949;BME280;38812;50.942;3.644;2023-03-01T04:15:06;102972.84;;;-4.46;100.00
52949;BME280;38812;50.942;3.644;2023-03-01T04:17:43;102966.03;;;-4.45;100.00
52949;BME280;38812;50.942;3.644;2023-03-01T04:20:11;102969.16;;;-4.50;100.00
52949;BME280;38812;50.942;3.644;2023-03-01T04:22:38;102954.53;;;-4.51;100.00
52949;BME280;38812;50.942;3.644;2023-03-01T04:25:04;102954.78;;;-4.47;100.00
52949;BME280;38812;50.942;3.644;2023-03-01T04:27:35;102947.63;;;-4.52;100.00
52949;BME280;38812;50.942;3.644;2023-03-01T04:30:04;102957.69;;;-4.43;100.00
52949;BME280;38812;50.942;3.644;2023-03-01T04:32:30;102957.66;;;-4.31;100.00
52949;BME280;38812;50.942;3.644;2023-03-01T04:34:55;102961.00;;;-4.32;100.00
52949;BME280;38812;50.942;3.644;2023-03-01T04:37:21;102948.53;;;-4.39;100.00
52949;BME280;38812;50.942;3.644;2023-03-01T04:39:46;102948.09;;;-4.45;100.00
52949;BME280;38812;50.942;3.644;2023-03-01T04:42:13;102946.63;;;-4.42;100.00
52949;BME280;38812;50.942;3.644;2023-03-01T04:44:39;102951.44;;;-4.23;100.00
52949;BME280;38812;50.942;3.644;2023-03-01T04:47:04;102947.19;;;-4.23;100.00
52949;BME280;38812;50.942;3.644;2023-03-01T04:49:30;102950.56;;;-4.35;100.00
52949;BME280;38812;50.942;3.644;2023-03-01T04:51:56;102949.78;;;-4.34;100.00
52949;BME280;38812;50.942;3.644;2023-03-01T04:54:33;102947.88;;;-4.37;100.00
52949;BME280;38812;50.942;3.644;2023-03-01T04:57:00;102944.31;;;-4.39;100.00
52949;BME280;38812;50.942;3.644;2023-03-01T04:59:26;102937.81;;;-4.45;100.00
52949;BME280;38812;50.942;3.644;2023-03-01T05:01:53;102938.84;;;-4.55;100.00
52949;BME280;38812;50.942;3.644;2023-03-01T05:04:23;102943.75;;;-4.58;100.00
52949;BME280;38812;50.942;3.644;2023-03-01T05:06:49;102938.94;;;-4.65;100.00
52949;BME280;38812;50.942;3.644;2023-03-01T05:09:15;102941.84;;;-4.61;100.00
52949;BME280;38812;50.942;3.644;2023-03-01T05:11:40;102943.50;;;-4.61;100.00
52949;BME280;38812;50.942;3.644;2023-03-01T05:14:07;102936.06;;;-4.58;100.00
52949;BME280;38812;50.942;3.644;2023-03-01T05:16:33;102937.28;;;-4.41;100.00
52949;BME280;38812;50.942;3.644;2023-03-01T05:18:59;102939.06;;;-4.40;100.00
52949;BME280;38812;50.942;3.644;2023-03-01T05:21:25;102940.28;;;-4.47;100.00
52949;BME280;38812;50.942;3.644;2023-03-01T05:23:51;102938.25;;;-4.51;100.00
52949;BME280;38812;50.942;3.644;2023-03-01T05:26:18;102922.88;;;-4.63;100.00
52949;BME280;38812;50.942;3.644;2023-03-01T05:28:47;102927.13;;;-4.63;100.00
52949;BME280;38812;50.942;3.644;2023-03-01T05:31:12;102924.91;;;-4.59;100.00
52949;BME280;38812;50.942;3.644;2023-03-01T05:33:39;102908.28;;;-4.64;100.00
52949;BME280;38812;50.942;3.644;2023-03-01T05:36:06;102913.41;;;-4.64;100.00
52949;BME280;38812;50.942;3.644;2023-03-01T05:38:32;102895.22;;;-4.67;100.00
52949;BME280;38812;50.942;3.644;2023-03-01T05:40:58;102898.78;;;-4.65;100.00
52949;BME280;38812;50.942;3.644;2023-03-01T05:43:23;102887.63;;;-4.65;100.00
52949;BME280;38812;50.942;3.644;2023-03-01T05:45:48;102887.97;;;-4.72;100.00
52949;BME280;38812;50.942;3.644;2023-03-01T05:48:14;102890.75;;;-4.81;100.00
52949;BME280;38812;50.942;3.644;2023-03-01T05:50:41;102890.00;;;-4.80;100.00
52949;BME280;38812;50.942;3.644;2023-03-01T05:53:11;102892.31;;;-4.83;100.00
52949;BME280;38812;50.942;3.644;2023-03-01T05:55:38;102880.50;;;-4.81;100.00
52949;BME280;38812;50.942;3.644;2023-03-01T05:58:07;102882.06;;;-4.60;100.00
52949;BME280;38812;50.942;3.644;2023-03-01T06:00:33;102881.94;;;-4.50;100.00
52949;BME280;38812;50.942;3.644;2023-03-01T06:02:59;102870.34;;;-4.68;100.00
52949;BME280;38812;50.942;3.644;2023-03-01T06:05:25;102866.78;;;-4.70;100.00
52949;BME280;38812;50.942;3.644;2023-03-01T06:07:51;102873.16;;;-4.65;100.00
52949;BME280;38812;50.942;3.644;2023-03-01T06:10:19;102867.91;;;-4.66;100.00
52949;BME280;38812;50.942;3.644;2023-03-01T06:12:45;102877.72;;;-4.61;100.00
52949;BME280;38812;50.942;3.644;2023-03-01T06:15:13;102881.41;;;-4.80;100.00
52949;BME280;38812;50.942;3.644;2023-03-01T06:17:40;102876.03;;;-4.84;100.00
52949;BME280;38812;50.942;3.644;2023-03-01T06:20:12;102881.06;;;-4.85;100.00
52949;BME280;38812;50.942;3.644;2023-03-01T06:22:38;102890.53;;;-4.61;100.00
52949;BME280;38812;50.942;3.644;2023-03-01T06:25:05;102889.59;;;-4.26;100.00
52949;BME280;38812;50.942;3.644;2023-03-01T06:27:30;102895.75;;;-4.24;100.00
52949;BME280;38812;50.942;3.644;2023-03-01T06:29:56;102893.25;;;-4.11;100.00
52949;BME280;38812;50.942;3.644;2023-03-01T06:32:21;102884.88;;;-4.08;100.00
52949;BME280;38812;50.942;3.644;2023-03-01T06:34:47;102886.22;;;-4.02;100.00
52949;BME280;38812;50.942;3.644;2023-03-01T06:37:12;102880.69;;;-3.83;100.00
52949;BME280;38812;50.942;3.644;2023-03-01T06:39:38;102883.03;;;-3.86;100.00
52949;BME280;38812;50.942;3.644;2023-03-01T06:42:04;102880.56;;;-3.85;100.00
52949;BME280;38812;50.942;3.644;2023-03-01T06:44:29;102883.53;;;-3.92;100.00
52949;BME280;38812;50.942;3.644;2023-03-01T06:46:55;102886.59;;;-3.84;100.00
52949;BME280;38812;50.942;3.644;2023-03-01T06:49:20;102878.22;;;-3.57;100.00
52949;BME280;38812;50.942;3.644;2023-03-01T06:51:46;102887.41;;;-2.84;100.00
52949;BME280;38812;50.942;3.644;2023-03-01T06:54:12;102886.09;;;-2.38;100.00
52949;BME280;38812;50.942;3.644;2023-03-01T06:56:38;102889.69;;;-1.82;100.00
52949;BME280;38812;50.942;3.644;2023-03-01T06:59:04;102890.06;;;-1.33;100.00
52949;BME280;38812;50.942;3.644;2023-03-01T07:01:30;102881.72;;;-1.14;100.00
52949;BME280;38812;50.942;3.644;2023-03-01T07:03:56;102883.25;;;-1.18;100.00
52949;BME280;38812;50.942;3.644;2023-03-01T07:06:22;102897.34;;;-1.26;100.00
52949;BME280;38812;50.942;3.644;2023-03-01T07:08:48;102889.78;;;-1.38;100.00
52949;BME280;38812;50.942;3.644;2023-03-01T07:11:14;102893.75;;;-1.57;100.00
52949;BME280;38812;50.942;3.644;2023-03-01T07:13:39;102891.06;;;-1.87;100.00
52949;BME280;38812;50.942;3.644;2023-03-01T07:16:05;102895.69;;;-2.09;100.00
52949;BME280;38812;50.942;3.644;2023-03-01T07:18:31;102886.00;;;-2.26;100.00
52949;BME280;38812;50.942;3.644;2023-03-01T07:20:56;102885.59;;;-2.32;100.00
52949;BME280;38812;50.942;3.644;2023-03-01T07:23:21;102890.16;;;-2.28;100.00
52949;BME280;38812;50.942;3.644;2023-03-01T07:25:54;102891.81;;;-2.16;100.00
52949;BME280;38812;50.942;3.644;2023-03-01T07:28:19;102895.88;;;-2.06;100.00
52949;BME280;38812;50.942;3.644;2023-03-01T07:30:45;102892.50;;;-2.05;100.00
52949;BME280;38812;50.942;3.644;2023-03-01T07:33:10;102890.78;;;-1.91;100.00
52949;BME280;38812;50.942;3.644;2023-03-01T07:35:36;102890.47;;;-1.83;100.00
52949;BME280;38812;50.942;3.644;2023-03-01T07:38:01;102891.22;;;-1.70;100.00
52949;BME280;38812;50.942;3.644;2023-03-01T07:40:27;102885.56;;;-1.50;100.00
52949;BME280;38812;50.942;3.644;2023-03-01T07:42:58;102889.97;;;-1.34;100.00
52949;BME280;38812;50.942;3.644;2023-03-01T07:45:25;102883.16;;;-1.19;100.00
52949;BME280;38812;50.942;3.644;2023-03-01T07:47:51;102891.00;;;-0.88;100.00
52949;BME280;38812;50.942;3.644;2023-03-01T07:50:17;102866.09;;;-0.88;100.00
52949;BME280;38812;50.942;3.644;2023-03-01T07:52:45;102879.81;;;-0.58;100.00
52949;BME280;38812;50.942;3.644;2023-03-01T07:55:11;102878.78;;;-0.30;100.00
52949;BME280;38812;50.942;3.644;2023-03-01T07:57:36;102875.31;;;0.00;100.00
52949;BME280;38812;50.942;3.644;2023-03-01T08:00:01;102858.94;;;0.16;100.00
52949;BME280;38812;50.942;3.644;2023-03-01T08:02:27;102862.28;;;0.47;100.00
52949;BME280;38812;50.942;3.644;2023-03-01T08:04:53;102867.78;;;1.03;100.00
52949;BME280;38812;50.942;3.644;2023-03-01T08:07:18;102859.69;;;1.49;100.00
52949;BME280;38812;50.942;3.644;2023-03-01T08:09:43;102861.34;;;1.84;100.00
52949;BME280;38812;50.942;3.644;2023-03-01T08:12:09;102873.19;;;2.35;100.00
52949;BME280;38812;50.942;3.644;2023-03-01T08:14:34;102877.69;;;2.78;100.00
52949;BME280;38812;50.942;3.644;2023-03-01T08:16:59;102869.72;;;3.36;100.00
52949;BME280;38812;50.942;3.644;2023-03-01T08:19:25;102864.31;;;3.97;100.00
52949;BME280;38812;50.942;3.644;2023-03-01T08:21:50;102857.03;;;4.10;100.00
52949;BME280;38812;50.942;3.644;2023-03-01T08:24:16;102851.06;;;4.37;100.00
52949;BME280;38812;50.942;3.644;2023-03-01T08:26:41;102847.84;;;4.68;100.00
52949;BME280;38812;50.942;3.644;2023-03-01T08:29:07;102853.41;;;4.29;100.00
52949;BME280;38812;50.942;3.644;2023-03-01T08:31:37;102845.25;;;4.20;100.00
52949;BME280;38812;50.942;3.644;2023-03-01T08:34:06;102842.41;;;4.14;100.00
52949;BME280;38812;50.942;3.644;2023-03-01T08:36:35;102850.84;;;4.07;100.00
52949;BME280;38812;50.942;3.644;2023-03-01T08:39:02;102849.59;;;3.97;100.00
52949;BME280;38812;50.942;3.644;2023-03-01T08:41:28;102861.16;;;4.28;100.00
52949;BME280;38812;50.942;3.644;2023-03-01T08:43:54;102867.47;;;4.83;100.00
52949;BME280;38812;50.942;3.644;2023-03-01T08:46:25;102856.59;;;4.95;100.00
52949;BME280;38812;50.942;3.644;2023-03-01T08:48:51;102847.75;;;4.90;100.00
52949;BME280;38812;50.942;3.644;2023-03-01T08:51:18;102838.03;;;4.61;100.00
52949;BME280;38812;50.942;3.644;2023-03-01T08:53:44;102831.97;;;4.86;100.00
52949;BME280;38812;50.942;3.644;2023-03-01T08:56:10;102833.56;;;5.07;100.00
52949;BME280;38812;50.942;3.644;2023-03-01T08:58:36;102829.97;;;5.31;100.00
52949;BME280;38812;50.942;3.644;2023-03-01T09:01:07;102839.44;;;5.02;100.00
52949;BME280;38812;50.942;3.644;2023-03-01T09:03:32;102834.56;;;5.38;100.00
52949;BME280;38812;50.942;3.644;2023-03-01T09:06:02;102820.91;;;5.18;96.36
52949;BME280;38812;50.942;3.644;2023-03-01T09:08:28;102822.38;;;6.22;94.51
52949;BME280;38812;50.942;3.644;2023-03-01T09:10:54;102818.38;;;5.48;92.58
52949;BME280;38812;50.942;3.644;2023-03-01T09:13:19;102808.19;;;5.56;91.09
52949;BME280;38812;50.942;3.644;2023-03-01T09:15:44;102820.41;;;5.86;91.57
52949;BME280;38812;50.942;3.644;2023-03-01T09:18:10;102815.72;;;4.93;89.76
52949;BME280;38812;50.942;3.644;2023-03-01T09:20:35;102815.44;;;5.10;92.47
52949;BME280;38812;50.942;3.644;2023-03-01T09:23:01;102820.59;;;5.36;88.67
52949;BME280;38812;50.942;3.644;2023-03-01T09:25:26;102819.94;;;5.71;89.62
52949;BME280;38812;50.942;3.644;2023-03-01T09:27:52;102812.94;;;6.27;83.14
52949;BME280;38812;50.942;3.644;2023-03-01T09:30:18;102802.97;;;5.85;86.28
52949;BME280;38812;50.942;3.644;2023-03-01T09:32:44;102805.31;;;6.35;84.25
52949;BME280;38812;50.942;3.644;2023-03-01T09:35:11;102810.09;;;5.90;83.55
52949;BME280;38812;50.942;3.644;2023-03-01T09:37:37;102806.47;;;5.56;81.98
52949;BME280;38812;50.942;3.644;2023-03-01T09:40:05;102806.28;;;5.78;82.43
52949;BME280;38812;50.942;3.644;2023-03-01T09:42:35;102801.44;;;5.91;80.50
52949;BME280;38812;50.942;3.644;2023-03-01T09:45:04;102795.91;;;6.10;78.81
52949;BME280;38812;50.942;3.644;2023-03-01T09:47:33;102788.94;;;5.80;78.55
52949;BME280;38812;50.942;3.644;2023-03-01T09:52:40;102790.91;;;5.59;78.98
52949;BME280;38812;50.942;3.644;2023-03-01T09:55:16;102786.25;;;6.07;78.94
52949;BME280;38812;50.942;3.644;2023-03-01T09:58:04;102789.75;;;6.71;78.41
52949;BME280;38812;50.942;3.644;2023-03-01T10:00:42;102781.28;;;5.86;75.77
52949;BME280;38812;50.942;3.644;2023-03-01T10:05:41;102779.72;;;5.63;75.97
52949;BME280;38812;50.942;3.644;2023-03-01T10:08:42;102786.31;;;6.09;75.46
52949;BME280;38812;50.942;3.644;2023-03-01T10:11:31;102774.59;;;6.58;76.21
52949;BME280;38812;50.942;3.644;2023-03-01T10:14:33;102774.03;;;6.69;75.06
52949;BME280;38812;50.942;3.644;2023-03-01T10:17:18;102765.97;;;6.96;74.86
52949;BME280;38812;50.942;3.644;2023-03-01T10:19:47;102767.78;;;6.99;72.08
52949;BME280;38812;50.942;3.644;2023-03-01T10:22:19;102763.03;;;7.18;72.23
52949;BME280;38812;50.942;3.644;2023-03-01T10:24:48;102760.22;;;7.09;70.28
52949;BME280;38812;50.942;3.644;2023-03-01T10:32:26;102768.03;;;6.40;69.08
52949;BME280;38812;50.942;3.644;2023-03-01T10:34:52;102753.69;;;6.58;69.28
52949;BME280;38812;50.942;3.644;2023-03-01T10:37:19;102742.47;;;6.62;70.76
52949;BME280;38812;50.942;3.644;2023-03-01T10:40:06;102747.50;;;7.25;66.10
52949;BME280;38812;50.942;3.644;2023-03-01T10:42:48;102741.25;;;7.19;65.04
52949;BME280;38812;50.942;3.644;2023-03-01T10:45:36;102737.00;;;6.85;67.86
52949;BME280;38812;50.942;3.644;2023-03-01T10:50:34;102733.47;;;6.50;66.21
52949;BME280;38812;50.942;3.644;2023-03-01T10:53:02;102731.38;;;7.06;66.44
52949;BME280;38812;50.942;3.644;2023-03-01T10:55:36;102724.50;;;6.39;63.87
52949;BME280;38812;50.942;3.644;2023-03-01T10:58:09;102723.16;;;6.90;65.29
52949;BME280;38812;50.942;3.644;2023-03-01T11:00:55;102732.88;;;7.33;63.56
52949;BME280;38812;50.942;3.644;2023-03-01T11:03:24;102709.44;;;7.39;63.77
52949;BME280;38812;50.942;3.644;2023-03-01T11:08:44;102714.59;;;6.61;64.60
52949;BME280;38812;50.942;3.644;2023-03-01T11:11:23;102715.03;;;6.79;63.67
52949;BME280;38812;50.942;3.644;2023-03-01T11:24:30;102709.28;;;6.23;64.40
52949;BME280;38812;50.942;3.644;2023-03-01T11:26:59;102686.81;;;6.30;64.75
52949;BME280;38812;50.942;3.644;2023-03-01T11:29:35;102696.31;;;6.61;65.65
52949;BME280;38812;50.942;3.644;2023-03-01T11:32:06;102693.31;;;6.80;65.57
52949;BME280;38812;50.942;3.644;2023-03-01T11:34:48;102681.78;;;7.08;64.02
52949;BME280;38812;50.942;3.644;2023-03-01T11:37:35;102666.75;;;6.99;62.69
52949;BME280;38812;50.942;3.644;2023-03-01T11:40:21;102671.47;;;7.56;62.48
52949;BME280;38812;50.942;3.644;2023-03-01T11:45:14;102661.47;;;7.35;63.22
52949;BME280;38812;50.942;3.644;2023-03-01T11:48:01;102667.00;;;7.10;63.31
52949;BME280;38812;50.942;3.644;2023-03-01T11:50:35;102665.59;;;6.86;61.54
52949;BME280;38812;50.942;3.644;2023-03-01T12:07:00;102652.03;;;7.88;62.98
52949;BME280;38812;50.942;3.644;2023-03-01T12:09:39;102666.19;;;7.12;62.01
52949;BME280;38812;50.942;3.644;2023-03-01T12:21:10;102630.44;;;7.99;61.59
52949;BME280;38812;50.942;3.644;2023-03-01T12:23:51;102641.91;;;8.07;59.54
52949;BME280;38812;50.942;3.644;2023-03-01T12:32:10;102625.16;;;7.96;60.66
52949;BME280;38812;50.942;3.644;2023-03-01T12:37:50;102617.41;;;8.03;61.65
52949;BME280;38812;50.942;3.644;2023-03-01T12:43:40;102622.50;;;7.49;61.10
52949;BME280;38812;50.942;3.644;2023-03-01T12:49:10;102603.25;;;7.92;59.04
52949;BME280;38812;50.942;3.644;2023-03-01T12:51:38;102584.75;;;7.81;59.34
52949;BME280;38812;50.942;3.644;2023-03-01T12:54:14;102587.25;;;7.29;59.26
52949;BME280;38812;50.942;3.644;2023-03-01T12:56:40;102583.44;;;7.56;59.65
52949;BME280;38812;50.942;3.644;2023-03-01T13:05:24;102562.53;;;8.08;57.95
52949;BME280;38812;50.942;3.644;2023-03-01T13:10:19;102556.78;;;7.31;58.79
52949;BME280;38812;50.942;3.644;2023-03-01T13:13:00;102552.53;;;7.36;57.29
52949;BME280;38812;50.942;3.644;2023-03-01T13:15:35;102533.31;;;7.34;57.96
52949;BME280;38812;50.942;3.644;2023-03-01T13:20:55;102533.38;;;7.38;57.69
52949;BME280;38812;50.942;3.644;2023-03-01T13:28:45;102517.91;;;7.49;57.88
52949;BME280;38812;50.942;3.644;2023-03-01T13:33:49;102507.22;;;8.41;58.82
52949;BME280;38812;50.942;3.644;2023-03-01T13:38:57;102510.56;;;7.78;56.51
52949;BME280;38812;50.942;3.644;2023-03-01T13:44:33;102508.28;;;7.98;56.54
52949;BME280;38812;50.942;3.644;2023-03-01T13:54:57;102504.16;;;7.12;58.76
52949;BME280;38812;50.942;3.644;2023-03-01T13:57:29;102502.47;;;7.17;60.30
52949;BME280;38812;50.942;3.644;2023-03-01T13:59:57;102482.81;;;7.38;61.74
52949;BME280;38812;50.942;3.644;2023-03-01T14:02:22;102493.41;;;7.44;60.65
52949;BME280;38812;50.942;3.644;2023-03-01T14:04:58;102493.34;;;6.96;57.76
52949;BME280;38812;50.942;3.644;2023-03-01T14:07:25;102477.56;;;6.90;58.67
52949;BME280;38812;50.942;3.644;2023-03-01T14:09:58;102486.47;;;7.01;60.32
52949;BME280;38812;50.942;3.644;2023-03-01T14:12:39;102483.31;;;7.17;59.86
52949;BME280;38812;50.942;3.644;2023-03-01T14:16:00;102470.78;;;6.99;58.79
52949;BME280;38812;50.942;3.644;2023-03-01T14:18:04;102467.59;;;7.14;60.81
52949;BME280;38812;50.942;3.644;2023-03-01T14:20:39;102453.84;;;7.26;60.74
52949;BME280;38812;50.942;3.644;2023-03-01T14:23:13;102444.19;;;7.21;59.61
52949;BME280;38812;50.942;3.644;2023-03-01T14:25:52;102465.03;;;7.18;59.59
52949;BME280;38812;50.942;3.644;2023-03-01T14:28:24;102458.53;;;6.97;59.21
52949;BME280;38812;50.942;3.644;2023-03-01T14:30:55;102462.88;;;6.96;59.28
52949;BME280;38812;50.942;3.644;2023-03-01T14:33:28;102448.88;;;6.94;58.95
52949;BME280;38812;50.942;3.644;2023-03-01T14:36:04;102440.84;;;6.83;58.04
52949;BME280;38812;50.942;3.644;2023-03-01T14:41:02;102435.38;;;6.71;60.39
52949;BME280;38812;50.942;3.644;2023-03-01T14:43:29;102431.16;;;6.78;60.31
52949;BME280;38812;50.942;3.644;2023-03-01T14:45:55;102429.72;;;6.92;60.57